This is the latest recevied weather packets stored in our database for station/object N1UNH. If no packets are shown the sender has not sent any weather packets the latest 10 day(s).
| Time | Temp. | Humidity | Pressure | Rain* | Wind** | Luminosity | Snow |
|---|---|---|---|---|---|---|---|
| 1777731113 | 7.78° C | 89% | 1017.4 hPa | 0 mm | - | 175 W/m² | - |
| 1777730811 | 7.78° C | 89% | 1017.6 hPa | 0 mm | - | 110 W/m² | - |
| 1777730507 | 7.78° C | 92% | 1017.5 hPa | 0 mm | - | 180 W/m² | - |
| 1777730203 | 7.78° C | 91% | 1017.9 hPa | 0 mm | - | 110 W/m² | - |
| 1777729900 | 7.78° C | 92% | 1017.6 hPa | 0 mm | - | 118 W/m² | - |
| 1777729597 | 7.78° C | 92% | 1017.8 hPa | 0 mm | - | 80 W/m² | - |
| 1777729293 | 7.22° C | 91% | 1017.8 hPa | 0 mm | - | 85 W/m² | - |
| 1777728990 | 7.22° C | 93% | 1017.5 hPa | 0 mm | - | 121 W/m² | - |
| 1777728687 | 7.78° C | 94% | 1017.6 hPa | 0 mm | - | 82 W/m² | - |
| 1777728384 | 7.22° C | 95% | 1017.9 hPa | 0 mm | - | 113 W/m² | - |
| 1777728081 | 7.22° C | 95% | 1017.8 hPa | 0 mm | - | 137 W/m² | - |
| 1777727778 | 7.22° C | 95% | 1017.9 hPa | 0 mm | - | 94 W/m² | - |
| 1777727475 | 7.22° C | 95% | 1017.7 hPa | 1.27 mm | - | 95 W/m² | - |
| 1777727172 | 7.22° C | 95% | 1017.8 hPa | 1.27 mm | - | 71 W/m² | - |
| 1777726870 | 7.22° C | 95% | 1017.8 hPa | 0 mm | - | 73 W/m² | - |
| 1777726566 | 6.67° C | 95% | 1017.7 hPa | 0 mm | - | 72 W/m² | - |
| 1777726264 | 6.67° C | 95% | 1017.8 hPa | 0 mm | - | 52 W/m² | - |
| 1777725960 | 6.67° C | 95% | 1017.9 hPa | 0 mm | - | 50 W/m² | - |
| 1777725657 | 6.67° C | 95% | 1018 hPa | 0 mm | - | 42 W/m² | - |
| 1777725355 | 6.67° C | 95% | 1018 hPa | 0 mm | - | 54 W/m² | - |
| 1777725052 | 6.67° C | 95% | 1018.2 hPa | 0 mm | - | 56 W/m² | - |
| 1777724748 | 6.67° C | 95% | 1017.9 hPa | 1.78 mm | - | 62 W/m² | - |
| 1777724446 | 6.67° C | 95% | 1018.1 hPa | 1.78 mm | - | 83 W/m² | - |
| 1777724143 | 6.67° C | 95% | 1017.9 hPa | 1.78 mm | - | 83 W/m² | - |
| 1777723840 | 6.67° C | 95% | 1018.1 hPa | 1.78 mm | - | 59 W/m² | - |
* Rain latest hour (hover to see other rain measurements)
** Current wind speed in m/s (hover to see current wind gust speed)